This is the latest recevied weather packets stored in our database for station/object EW3591. If no packets are shown the sender has not sent any weather packets the latest 1 day(s).
| Time | Temp. | Humidity | Pressure | Rain* | Wind** | Luminosity | Snow |
|---|---|---|---|---|---|---|---|
| 1777972693 | 13.89° C | 87% | 999.2 hPa | 0 mm | 2.24 m/s, 218° | - | - |
| 1777972573 | 13.89° C | 87% | 999.2 hPa | 0 mm | 2.68 m/s, 220° | - | - |
| 1777972453 | 13.89° C | 87% | 999.2 hPa | 0 mm | 3.13 m/s, 207° | - | - |
| 1777972332 | 13.89° C | 86% | 999.2 hPa | 0 mm | 2.68 m/s, 224° | - | - |
| 1777972212 | 13.89° C | 86% | 999.2 hPa | 0 mm | 1.79 m/s, 224° | - | - |
| 1777972092 | 13.89° C | 86% | 999.2 hPa | 0 mm | 2.24 m/s, 209° | - | - |
| 1777971971 | 13.89° C | 86% | 999.2 hPa | 0 mm | 2.68 m/s, 208° | - | - |
| 1777971851 | 13.89° C | 86% | 999.2 hPa | 0 mm | 2.24 m/s, 203° | - | - |
| 1777971731 | 13.89° C | 86% | 999.2 hPa | 0 mm | 3.13 m/s, 207° | - | - |
| 1777971610 | 13.89° C | 86% | 999.2 hPa | 0 mm | 2.24 m/s, 220° | - | - |
| 1777971490 | 13.89° C | 86% | 999.1 hPa | 0 mm | 2.68 m/s, 223° | - | - |
| 1777971370 | 13.89° C | 86% | 999.1 hPa | 0 mm | 3.13 m/s, 208° | - | - |
| 1777971250 | 13.89° C | 86% | 999.1 hPa | 0 mm | 2.68 m/s, 199° | - | - |
| 1777971129 | 13.89° C | 86% | 999 hPa | 0 mm | 2.24 m/s, 215° | - | - |
| 1777971009 | 13.89° C | 85% | 999.1 hPa | 0 mm | 2.24 m/s, 226° | - | - |
| 1777970889 | 13.89° C | 85% | 999 hPa | 0 mm | 3.13 m/s, 205° | - | - |
| 1777970768 | 14.44° C | 85% | 999 hPa | 0 mm | 2.68 m/s, 190° | - | - |
| 1777970648 | 14.44° C | 85% | 999 hPa | 0 mm | 2.24 m/s, 213° | - | - |
| 1777970528 | 14.44° C | 85% | 998.9 hPa | 0 mm | 1.79 m/s, 234° | - | - |
| 1777970407 | 14.44° C | 85% | 999 hPa | 0 mm | 2.24 m/s, 227° | - | - |
| 1777970287 | 14.44° C | 85% | 999 hPa | 0 mm | 3.13 m/s, 207° | - | - |
| 1777970167 | 14.44° C | 85% | 999 hPa | 0 mm | 2.68 m/s, 217° | - | - |
| 1777970047 | 14.44° C | 85% | 999 hPa | 0 mm | 2.68 m/s, 213° | - | - |
| 1777969926 | 14.44° C | 84% | 998.9 hPa | 0 mm | 2.68 m/s, 220° | - | - |
| 1777969806 | 14.44° C | 84% | 999 hPa | 0 mm | 2.24 m/s, 216° | - | - |
* Rain latest hour (hover to see other rain measurements)
** Current wind speed in m/s (hover to see current wind gust speed)